createdAt,value
2019-03-06T00:01:22.846Z,2.47
2019-03-06T00:03:51.625Z,2.35
2019-03-06T00:06:20.571Z,1.75
2019-03-06T00:08:49.284Z,1.37
2019-03-06T00:11:18.380Z,3.42
2019-03-06T00:13:47.083Z,2.35
2019-03-06T00:16:15.827Z,1.80
2019-03-06T00:18:44.539Z,2.27
2019-03-06T00:21:13.250Z,1.27
2019-03-06T00:23:42.138Z,0.93
2019-03-06T00:26:10.927Z,1.40
2019-03-06T00:28:39.644Z,1.50
2019-03-06T00:31:08.430Z,1.22
2019-03-06T00:33:37.134Z,1.15
2019-03-06T00:36:09.634Z,1.20
2019-03-06T00:38:38.358Z,0.70
2019-03-06T00:41:38.174Z,1.45
2019-03-06T00:44:06.892Z,1.30
2019-03-06T00:46:35.686Z,1.50
2019-03-06T00:49:04.434Z,1.32
2019-03-06T00:51:33.142Z,2.00
2019-03-06T00:54:01.870Z,1.27
2019-03-06T00:56:30.644Z,1.50
2019-03-06T00:58:59.426Z,1.30
2019-03-06T01:01:28.136Z,1.22
2019-03-06T01:03:56.921Z,2.10
2019-03-06T01:06:26.456Z,1.27
2019-03-06T01:08:55.158Z,1.55
2019-03-06T01:11:23.974Z,0.50
2019-03-06T01:13:52.674Z,0.80
2019-03-06T01:16:21.390Z,1.00
2019-03-06T01:18:50.087Z,2.92
2019-03-06T01:21:18.806Z,0.60
2019-03-06T01:23:47.519Z,2.15
2019-03-06T01:26:16.234Z,2.98
2019-03-06T01:28:44.958Z,1.10
2019-03-06T01:31:13.974Z,2.62
2019-03-06T01:34:04.509Z,0.90
2019-03-06T01:36:50.703Z,0.50
2019-03-06T01:39:31.283Z,1.55
2019-03-06T01:42:17.019Z,1.32
2019-03-06T01:44:49.780Z,1.62
2019-03-06T01:47:18.564Z,2.05
2019-03-06T01:49:47.316Z,1.42
2019-03-06T01:52:16.067Z,0.82
2019-03-06T01:54:44.773Z,0.88
2019-03-06T01:57:13.654Z,0.93
2019-03-06T01:59:42.364Z,0.80
2019-03-06T02:02:11.243Z,2.10
2019-03-06T02:04:39.947Z,1.10
2019-03-06T02:07:08.983Z,1.30
2019-03-06T02:09:37.691Z,0.50
2019-03-06T02:12:07.190Z,1.02
2019-03-06T02:14:35.887Z,1.15
2019-03-06T02:17:04.598Z,1.17
2019-03-06T02:19:33.296Z,1.05
2019-03-06T02:22:01.998Z,1.67
2019-03-06T02:24:30.768Z,0.70
2019-03-06T02:26:59.470Z,1.65
2019-03-06T02:29:28.182Z,1.70
2019-03-06T02:31:56.916Z,2.67
2019-03-06T02:34:25.688Z,2.00
2019-03-06T02:36:54.394Z,1.60
2019-03-06T02:39:23.791Z,1.47
2019-03-06T02:41:52.584Z,0.72
2019-03-06T02:44:21.378Z,1.42
2019-03-06T02:46:50.165Z,2.05
2019-03-06T02:49:19.452Z,2.05
2019-03-06T02:51:48.226Z,0.50
2019-03-06T02:54:17.011Z,1.02
2019-03-06T02:56:45.704Z,1.67
2019-03-06T02:59:21.240Z,1.45
2019-03-06T03:02:27.027Z,1.72
2019-03-06T03:05:17.506Z,1.20
2019-03-06T03:07:46.226Z,0.75
2019-03-06T03:10:15.201Z,1.00
2019-03-06T03:12:44.002Z,0.85
2019-03-06T03:15:12.777Z,1.20
2019-03-06T03:17:41.495Z,1.62
2019-03-06T03:20:10.203Z,1.07
2019-03-06T03:22:38.984Z,0.70
2019-03-06T03:25:07.762Z,1.15
2019-03-06T03:27:36.468Z,1.80
2019-03-06T03:30:06.493Z,2.12
2019-03-06T03:32:35.282Z,1.12
2019-03-06T03:35:04.293Z,0.60
2019-03-06T03:37:33.075Z,1.10
2019-03-06T03:40:01.786Z,0.80
2019-03-06T03:42:30.759Z,0.70
2019-03-06T03:44:59.548Z,1.25
2019-03-06T03:47:28.329Z,0.70
2019-03-06T03:49:57.039Z,0.47
2019-03-06T03:52:25.830Z,1.05
2019-03-06T03:54:54.619Z,1.20
2019-03-06T03:57:23.591Z,0.70
2019-03-06T03:59:55.640Z,0.60
2019-03-06T04:02:23.811Z,2.00
2019-03-06T04:04:52.599Z,2.35
2019-03-06T04:07:21.317Z,0.50
2019-03-06T04:09:50.098Z,0.80
2019-03-06T04:12:18.797Z,0.80
2019-03-06T04:14:47.518Z,0.72
2019-03-06T04:17:16.300Z,0.50
2019-03-06T04:19:45.092Z,0.80
2019-03-06T04:22:13.808Z,0.70
2019-03-06T04:24:42.603Z,0.90
2019-03-06T04:27:11.310Z,0.68
2019-03-06T04:29:40.023Z,1.32
2019-03-06T04:32:08.744Z,1.65
2019-03-06T04:34:38.043Z,0.60
2019-03-06T04:37:06.769Z,0.80
2019-03-06T04:39:35.575Z,0.98
2019-03-06T04:42:04.356Z,0.78
2019-03-06T04:44:33.070Z,0.90
2019-03-06T04:47:02.064Z,1.42
2019-03-06T04:49:30.794Z,1.32
2019-03-06T04:51:59.514Z,0.72
2019-03-06T04:54:28.222Z,0.70
2019-03-06T04:56:56.931Z,1.32
2019-03-06T04:59:25.628Z,1.92
2019-03-06T05:01:54.430Z,1.90
2019-03-06T05:04:23.238Z,1.60
2019-03-06T05:06:52.025Z,1.25
2019-03-06T05:09:20.735Z,1.10
2019-03-06T05:11:49.442Z,0.82
2019-03-06T05:14:18.159Z,0.80
2019-03-06T05:17:11.960Z,2.35
2019-03-06T05:19:40.923Z,3.30
2019-03-06T05:22:09.634Z,4.60
2019-03-06T05:24:38.342Z,2.98
2019-03-06T05:27:07.061Z,2.25
2019-03-06T05:29:35.790Z,0.98
2019-03-06T05:32:22.353Z,0.70
2019-03-06T05:34:51.058Z,0.90
2019-03-06T05:37:50.895Z,1.40
2019-03-06T05:40:19.618Z,1.37
2019-03-06T05:42:48.414Z,0.85
2019-03-06T05:45:17.206Z,1.87
2019-03-06T05:47:45.923Z,2.55
2019-03-06T05:50:15.207Z,2.30
2019-03-06T05:52:43.994Z,2.60
2019-03-06T05:55:12.714Z,1.00
2019-03-06T05:57:41.427Z,0.80
2019-03-06T06:00:10.353Z,0.85
2019-03-06T06:02:39.138Z,2.90
2019-03-06T06:05:09.003Z,2.42
2019-03-06T06:07:37.782Z,0.82
2019-03-06T06:10:06.853Z,1.37
2019-03-06T06:12:35.639Z,1.90
2019-03-06T06:15:05.570Z,1.35
2019-03-06T06:17:34.279Z,2.27
2019-03-06T06:20:03.062Z,0.95
2019-03-06T06:23:03.137Z,0.75
2019-03-06T06:25:33.294Z,0.90
2019-03-06T06:28:02.018Z,0.60
2019-03-06T06:30:30.954Z,1.42
2019-03-06T06:32:59.842Z,0.70
2019-03-06T06:35:28.647Z,1.40
2019-03-06T06:37:57.483Z,1.37
2019-03-06T06:40:26.877Z,1.80
2019-03-06T06:42:55.662Z,0.80
2019-03-06T06:45:24.506Z,0.80
2019-03-06T06:48:24.339Z,1.45
2019-03-06T06:51:10.387Z,1.25
2019-03-06T06:53:40.866Z,0.75
2019-03-06T06:56:40.560Z,1.20
2019-03-06T06:59:14.323Z,0.80
2019-03-06T07:02:13.854Z,0.75
2019-03-06T07:05:08.574Z,1.10
2019-03-06T07:08:08.067Z,0.75
2019-03-06T07:10:51.838Z,0.80
2019-03-06T07:13:34.959Z,0.93
2019-03-06T07:16:16.218Z,0.90
2019-03-06T07:19:03.963Z,0.93
2019-03-06T07:21:39.421Z,1.40
2019-03-06T07:24:25.925Z,1.60
2019-03-06T07:27:10.382Z,1.20
2019-03-06T07:29:50.947Z,1.75
2019-03-06T07:32:48.170Z,0.90
2019-03-06T07:36:03.043Z,0.60
2019-03-06T07:38:31.832Z,1.12
2019-03-06T07:41:18.157Z,1.07
2019-03-06T07:44:08.721Z,1.80
2019-03-06T07:47:11.500Z,0.88
2019-03-06T07:50:00.682Z,0.60
2019-03-06T07:52:47.340Z,2.60
2019-03-06T07:55:35.259Z,0.85
2019-03-06T07:58:21.638Z,1.57
2019-03-06T08:00:50.666Z,1.10
2019-03-06T08:03:29.043Z,1.00
2019-03-06T08:05:57.811Z,0.72
2019-03-06T08:08:26.526Z,0.65
2019-03-06T08:10:56.740Z,1.15
2019-03-06T08:13:32.927Z,1.22
2019-03-06T08:16:13.390Z,1.37
2019-03-06T08:18:55.982Z,1.30
2019-03-06T08:21:49.849Z,0.98
2019-03-06T08:24:40.439Z,1.05
2019-03-06T08:27:09.365Z,1.00
2019-03-06T08:29:38.151Z,1.22
2019-03-06T08:32:15.967Z,1.75
2019-03-06T08:34:44.667Z,1.20
2019-03-06T08:37:13.402Z,1.25
2019-03-06T08:39:42.191Z,1.65
2019-03-06T08:42:11.142Z,1.52
2019-03-06T08:44:40.131Z,1.60
2019-03-06T08:47:31.478Z,2.25
2019-03-06T08:50:25.126Z,0.75
2019-03-06T08:53:31.173Z,1.10
2019-03-06T08:56:31.147Z,1.17
2019-03-06T08:59:33.694Z,1.60
2019-03-06T09:02:28.823Z,1.30
2019-03-06T09:05:19.368Z,1.60
2019-03-06T09:08:18.933Z,1.20
2019-03-06T09:11:05.104Z,1.25
2019-03-06T09:13:58.430Z,1.62
2019-03-06T09:16:38.143Z,1.22
2019-03-06T09:19:40.583Z,0.90
2019-03-06T09:22:26.658Z,1.30
2019-03-06T09:25:17.143Z,0.90
2019-03-06T09:28:16.826Z,1.20
2019-03-06T09:31:02.723Z,1.80
2019-03-06T09:33:50.450Z,0.90
2019-03-06T09:36:31.263Z,1.17
2019-03-06T09:39:17.111Z,1.42
2019-03-06T09:41:59.858Z,1.30
2019-03-06T09:44:56.590Z,1.32
2019-03-06T09:47:53.283Z,1.02
2019-03-06T09:50:27.268Z,1.62
2019-03-06T09:53:07.854Z,1.25
2019-03-06T09:55:50.335Z,1.45
2019-03-06T09:58:46.742Z,1.30
2019-03-06T10:01:30.373Z,0.70
2019-03-06T10:04:33.327Z,1.50
2019-03-06T10:07:26.661Z,1.62
2019-03-06T10:10:14.030Z,0.93
2019-03-06T10:12:58.166Z,1.10
2019-03-06T10:15:32.606Z,1.05
2019-03-06T10:18:14.542Z,0.65
2019-03-06T10:20:43.255Z,1.10
2019-03-06T10:23:12.666Z,1.10
2019-03-06T10:25:42.091Z,1.62
2019-03-06T10:28:11.504Z,1.10
2019-03-06T10:30:41.443Z,0.98
2019-03-06T10:33:10.844Z,1.10
2019-03-06T10:35:40.247Z,0.93
2019-03-06T10:38:16.477Z,1.00
2019-03-06T10:40:41.735Z,0.72
2019-03-06T10:43:11.151Z,0.90
2019-03-06T10:45:41.893Z,1.05
2019-03-06T10:48:11.542Z,1.00
2019-03-06T10:50:40.952Z,1.50
2019-03-06T10:53:10.358Z,1.60
2019-03-06T10:55:39.760Z,1.25
2019-03-06T10:58:09.259Z,0.93
2019-03-06T11:00:47.025Z,1.07
2019-03-06T11:03:16.419Z,1.10
2019-03-06T11:05:45.919Z,1.40
2019-03-06T11:08:16.533Z,1.62
2019-03-06T11:10:45.940Z,1.42
2019-03-06T11:13:15.367Z,1.02
2019-03-06T11:15:45.014Z,0.90
2019-03-06T11:18:16.459Z,1.07
2019-03-06T11:20:46.334Z,1.30
2019-03-06T11:23:15.958Z,1.25
2019-03-06T11:25:45.470Z,0.90
2019-03-06T11:28:15.085Z,1.00
2019-03-06T11:30:50.351Z,1.52
2019-03-06T11:33:21.066Z,0.80
2019-03-06T11:35:52.258Z,1.30
2019-03-06T11:38:22.066Z,1.20
2019-03-06T11:40:51.482Z,2.10
2019-03-06T11:43:20.900Z,1.17
2019-03-06T11:45:50.348Z,1.12
2019-03-06T11:48:19.940Z,1.35
2019-03-06T11:50:49.989Z,1.75
2019-03-06T11:53:19.606Z,0.90
2019-03-06T11:55:49.021Z,1.20
2019-03-06T11:58:18.952Z,1.20
2019-03-06T12:00:48.679Z,1.80
2019-03-06T12:03:20.159Z,1.35
2019-03-06T12:05:50.840Z,1.85
2019-03-06T12:08:20.475Z,1.02
2019-03-06T12:10:51.751Z,1.40
2019-03-06T12:13:21.604Z,1.07
2019-03-06T12:15:52.116Z,1.20
2019-03-06T12:18:22.819Z,2.60
2019-03-06T12:20:53.239Z,1.15
2019-03-06T12:23:22.868Z,0.90
2019-03-06T12:25:52.478Z,1.35
2019-03-06T12:28:22.097Z,1.52
2019-03-06T12:30:51.810Z,1.40
2019-03-06T12:33:26.380Z,1.52
2019-03-06T12:35:55.840Z,1.00
2019-03-06T12:38:26.305Z,1.25
2019-03-06T12:40:55.723Z,1.75
2019-03-06T12:43:25.055Z,1.22
2019-03-06T12:46:23.754Z,1.10
2019-03-06T12:49:04.372Z,1.20
2019-03-06T12:51:35.655Z,3.17
2019-03-06T12:54:06.498Z,1.00
2019-03-06T12:56:36.011Z,1.30
2019-03-06T12:59:06.139Z,1.07
2019-03-06T13:01:35.669Z,0.80
2019-03-06T13:04:06.003Z,1.35
2019-03-06T13:06:35.539Z,0.88
2019-03-06T13:09:13.688Z,0.70
2019-03-06T13:11:43.506Z,1.17
2019-03-06T13:14:12.914Z,0.82
2019-03-06T13:16:42.653Z,1.25
2019-03-06T13:19:12.075Z,1.32
2019-03-06T13:21:41.992Z,1.32
2019-03-06T13:24:12.029Z,1.55
2019-03-06T13:26:41.433Z,1.52
2019-03-06T13:29:10.831Z,0.98
2019-03-06T13:31:40.242Z,1.17
2019-03-06T13:34:50.570Z,0.90
2019-03-06T13:37:17.754Z,1.25
2019-03-06T13:39:47.401Z,1.12
2019-03-06T13:42:16.794Z,0.68
2019-03-06T13:44:46.195Z,0.80
2019-03-06T13:47:16.010Z,1.32
2019-03-06T13:49:45.433Z,1.32
2019-03-06T13:52:15.055Z,0.90
2019-03-06T13:54:44.668Z,0.90
2019-03-06T13:57:14.467Z,1.30
2019-03-06T13:59:43.907Z,1.15
2019-03-06T14:02:13.378Z,1.10
2019-03-06T14:04:42.787Z,1.20
2019-03-06T14:07:12.190Z,0.60
2019-03-06T14:09:41.600Z,1.00
2019-03-06T14:12:11.243Z,1.10
2019-03-06T14:14:40.639Z,1.20
2019-03-06T14:17:10.055Z,1.00
2019-03-06T14:19:39.462Z,1.10
2019-03-06T14:22:09.215Z,0.90
2019-03-06T14:24:38.619Z,0.60
2019-03-06T14:27:09.591Z,0.50
2019-03-06T14:29:39.036Z,0.60
2019-03-06T14:32:14.769Z,0.95
2019-03-06T14:34:39.496Z,1.02
2019-03-06T14:37:08.899Z,0.70
2019-03-06T14:39:38.542Z,1.00
2019-03-06T14:42:07.953Z,0.60
2019-03-06T14:44:37.369Z,0.93
2019-03-06T14:47:06.804Z,1.10
2019-03-06T14:49:36.503Z,1.05
2019-03-06T14:52:07.600Z,0.90
2019-03-06T14:54:37.155Z,0.90
2019-03-06T14:57:06.784Z,0.70
2019-03-06T14:59:36.188Z,0.75
2019-03-06T15:02:05.850Z,1.10
2019-03-06T15:04:35.258Z,1.70
2019-03-06T15:07:06.224Z,1.65
2019-03-06T15:09:35.817Z,0.70
2019-03-06T15:12:05.186Z,0.80
2019-03-06T15:14:36.541Z,0.90
2019-03-06T15:17:05.918Z,0.90
2019-03-06T15:19:35.307Z,0.75
2019-03-06T15:22:04.915Z,1.02
2019-03-06T15:24:41.033Z,0.95
2019-03-06T15:27:05.463Z,1.05
2019-03-06T15:29:35.288Z,1.00
2019-03-06T15:32:04.686Z,0.98
2019-03-06T15:34:34.080Z,1.20
2019-03-06T15:37:03.484Z,1.35
2019-03-06T15:39:44.480Z,1.30
2019-03-06T15:42:12.920Z,1.12
2019-03-06T15:44:42.311Z,0.90
2019-03-06T15:47:11.748Z,0.98
2019-03-06T15:49:41.163Z,0.93
2019-03-06T15:52:11.126Z,1.42
2019-03-06T15:54:40.547Z,1.57
2019-03-06T15:57:10.253Z,0.90
2019-03-06T15:59:39.760Z,1.12
2019-03-06T16:02:09.250Z,1.15
2019-03-06T16:04:38.750Z,0.95
2019-03-06T16:07:08.151Z,1.47
2019-03-06T16:09:37.754Z,0.80
2019-03-06T16:12:07.351Z,1.50
2019-03-06T16:14:36.750Z,1.87
2019-03-06T16:17:06.148Z,1.07
2019-03-06T16:19:35.847Z,1.00
2019-03-06T16:22:05.446Z,1.05
2019-03-06T16:24:34.938Z,1.00
2019-03-06T16:27:04.339Z,1.40
2019-03-06T16:29:33.763Z,1.47
2019-03-06T16:32:03.191Z,1.47
2019-03-06T16:34:32.643Z,1.55
2019-03-06T16:37:02.143Z,1.62
2019-03-06T16:39:31.638Z,0.93
2019-03-06T16:42:01.040Z,1.52
2019-03-06T16:44:30.439Z,1.12
2019-03-06T16:47:06.365Z,1.70
2019-03-06T16:49:30.890Z,1.70
2019-03-06T16:52:00.389Z,1.62
2019-03-06T16:54:29.799Z,2.47
2019-03-06T16:56:59.258Z,2.05
2019-03-06T16:59:28.670Z,1.27
2019-03-06T17:01:58.071Z,2.33
2019-03-06T17:04:27.599Z,1.70
2019-03-06T17:06:57.161Z,1.70
2019-03-06T17:09:26.496Z,1.65
2019-03-06T17:11:55.906Z,1.80
2019-03-06T17:14:25.654Z,1.98
2019-03-06T17:16:55.063Z,1.32
2019-03-06T17:19:24.668Z,1.62
2019-03-06T17:21:54.079Z,1.55
2019-03-06T17:24:23.677Z,1.60
2019-03-06T17:26:53.129Z,1.70
2019-03-06T17:29:22.547Z,1.70
2019-03-06T17:31:51.956Z,2.00
2019-03-06T17:34:21.363Z,2.02
2019-03-06T17:36:50.877Z,2.10
2019-03-06T17:39:20.278Z,1.82
2019-03-06T17:41:49.686Z,1.65
2019-03-06T17:44:19.091Z,1.20
2019-03-06T17:46:48.490Z,1.80
2019-03-06T17:49:17.895Z,1.62
2019-03-06T17:51:47.299Z,2.05
2019-03-06T17:54:16.724Z,1.90
2019-03-06T17:56:46.803Z,1.37
2019-03-06T17:59:16.210Z,1.60
2019-03-06T18:01:45.834Z,1.57
2019-03-06T18:04:16.754Z,1.95
2019-03-06T18:06:46.484Z,2.00
2019-03-06T18:09:15.895Z,1.32
2019-03-06T18:11:45.303Z,1.30
2019-03-06T18:14:15.158Z,1.70
2019-03-06T18:16:44.550Z,1.22
2019-03-06T18:19:13.987Z,1.50
2019-03-06T18:21:43.390Z,1.75
2019-03-06T18:24:12.794Z,1.40
2019-03-06T18:26:42.214Z,1.72
2019-03-06T18:29:11.842Z,1.67
2019-03-06T18:31:41.277Z,1.80
2019-03-06T18:34:10.683Z,1.72
2019-03-06T18:36:40.112Z,1.62
2019-03-06T18:39:19.675Z,1.80
2019-03-06T18:41:49.620Z,2.47
2019-03-06T18:44:19.037Z,2.75
2019-03-06T18:46:48.475Z,2.50
2019-03-06T18:49:17.878Z,2.90
2019-03-06T18:51:47.352Z,1.90
2019-03-06T18:54:16.770Z,2.47
2019-03-06T18:56:46.185Z,3.02
2019-03-06T18:59:15.583Z,3.20
2019-03-06T19:01:45.036Z,3.15
2019-03-06T19:04:14.450Z,3.08
2019-03-06T19:06:43.894Z,3.35
2019-03-06T19:09:13.505Z,3.00
2019-03-06T19:11:43.110Z,2.45
2019-03-06T19:14:12.539Z,2.22
2019-03-06T19:16:41.934Z,2.12
2019-03-06T19:19:11.338Z,3.15
2019-03-06T19:21:41.215Z,3.27
2019-03-06T19:24:10.610Z,3.60
2019-03-06T19:26:40.218Z,2.60
2019-03-06T19:29:09.631Z,3.00
2019-03-06T19:31:39.047Z,2.80
2019-03-06T19:34:08.459Z,2.87
2019-03-06T19:36:37.908Z,2.50
2019-03-06T19:39:07.726Z,2.65
2019-03-06T19:41:37.657Z,3.67
2019-03-06T19:44:07.277Z,3.10
2019-03-06T19:46:36.674Z,2.87
2019-03-06T19:49:06.379Z,2.80
2019-03-06T19:51:35.842Z,3.87
2019-03-06T19:54:05.353Z,3.55
2019-03-06T19:56:34.876Z,3.60
2019-03-06T19:59:04.351Z,4.40
2019-03-06T20:01:33.786Z,3.95
2019-03-06T20:04:03.175Z,3.52
2019-03-06T20:06:33.083Z,4.92
2019-03-06T20:09:04.519Z,4.78
2019-03-06T20:11:33.922Z,3.90
2019-03-06T20:14:03.319Z,3.10
2019-03-06T20:16:32.750Z,2.90
2019-03-06T20:19:02.362Z,3.75
2019-03-06T20:21:31.755Z,3.70
2019-03-06T20:24:01.147Z,3.42
2019-03-06T20:26:30.553Z,3.22
2019-03-06T20:28:59.952Z,3.77
2019-03-06T20:31:29.354Z,5.37
2019-03-06T20:33:58.754Z,3.67
2019-03-06T20:36:28.171Z,4.25
2019-03-06T20:38:57.563Z,4.25
2019-03-06T20:41:27.171Z,3.65
2019-03-06T20:43:56.571Z,5.95
2019-03-06T20:46:25.975Z,4.08
2019-03-06T20:48:55.395Z,3.72
2019-03-06T20:51:24.792Z,4.20
2019-03-06T20:53:54.194Z,2.80
2019-03-06T20:56:23.802Z,3.67
2019-03-06T20:58:53.188Z,2.85
2019-03-06T21:01:22.624Z,3.52
2019-03-06T21:03:52.015Z,2.75
2019-03-06T21:06:21.913Z,3.17
2019-03-06T21:08:51.326Z,3.12
2019-03-06T21:11:20.714Z,2.83
2019-03-06T21:13:50.114Z,4.47
2019-03-06T21:16:19.523Z,3.77
2019-03-06T21:18:48.926Z,3.15
2019-03-06T21:21:18.319Z,4.60
2019-03-06T21:23:47.774Z,3.70
2019-03-06T21:26:17.180Z,4.05
2019-03-06T21:28:46.578Z,2.85
2019-03-06T21:31:15.983Z,2.87
2019-03-06T21:33:45.382Z,2.98
2019-03-06T21:36:14.782Z,4.22
2019-03-06T21:38:44.194Z,3.30
2019-03-06T21:41:13.586Z,3.20
2019-03-06T21:43:42.987Z,2.92
2019-03-06T21:46:12.425Z,3.85
2019-03-06T21:48:41.830Z,3.77
2019-03-06T21:51:11.220Z,3.70
2019-03-06T21:53:40.619Z,3.75
2019-03-06T21:56:11.558Z,3.85
2019-03-06T21:58:41.103Z,2.85
2019-03-06T22:01:10.543Z,3.98
2019-03-06T22:03:39.937Z,2.60
2019-03-06T22:06:09.343Z,2.65
2019-03-06T22:08:38.721Z,2.90
2019-03-06T22:11:08.118Z,3.05
2019-03-06T22:13:37.525Z,2.77
2019-03-06T22:16:07.115Z,2.12
2019-03-06T22:18:36.512Z,2.37
2019-03-06T22:21:05.921Z,2.22
2019-03-06T22:23:35.303Z,2.58
2019-03-06T22:26:04.720Z,2.90
2019-03-06T22:28:34.113Z,1.82
2019-03-06T22:31:03.614Z,3.05
2019-03-06T22:33:33.012Z,3.05
2019-03-06T22:36:02.510Z,2.00
2019-03-06T22:38:31.900Z,3.00
2019-03-06T22:41:01.298Z,2.35
2019-03-06T22:43:30.707Z,3.37
2019-03-06T22:46:00.611Z,3.05
2019-03-06T22:48:30.004Z,1.85
2019-03-06T22:50:59.395Z,1.90
2019-03-06T22:53:28.800Z,3.17
2019-03-06T22:55:58.191Z,1.90
2019-03-06T22:58:27.622Z,4.50
2019-03-06T23:01:00.544Z,3.08
2019-03-06T23:03:31.599Z,2.05
2019-03-06T23:06:00.987Z,2.40
2019-03-06T23:08:30.390Z,1.72
2019-03-06T23:10:59.812Z,2.58
2019-03-06T23:13:29.411Z,1.42
2019-03-06T23:15:58.814Z,1.75
2019-03-06T23:18:28.202Z,3.10
2019-03-06T23:20:57.607Z,1.50
2019-03-06T23:23:27.034Z,1.20
2019-03-06T23:25:56.730Z,1.47
2019-03-06T23:28:26.125Z,1.95
2019-03-06T23:30:55.551Z,1.40
2019-03-06T23:33:24.946Z,1.35
2019-03-06T23:35:54.269Z,1.10
2019-03-06T23:38:23.666Z,1.20
2019-03-06T23:40:53.166Z,1.77
2019-03-06T23:43:22.559Z,1.37
2019-03-06T23:45:51.966Z,2.92
2019-03-06T23:48:21.365Z,4.78
2019-03-06T23:50:50.767Z,2.15
2019-03-06T23:53:23.893Z,1.90
2019-03-06T23:55:53.284Z,1.60
2019-03-06T23:58:22.739Z,1.65
